sensor_id;sensor_type;location;lat;lon;timestamp;temperature;humidity
45319;DHT22;31057;48.498;32.260;2023-05-23T00:01:22;14.80;99.90
45319;DHT22;31057;48.498;32.260;2023-05-23T00:03:25;14.80;99.90
45319;DHT22;31057;48.498;32.260;2023-05-23T00:05:27;14.70;99.90
45319;DHT22;31057;48.498;32.260;2023-05-23T00:07:29;14.70;99.90
45319;DHT22;31057;48.498;32.260;2023-05-23T00:09:33;14.60;99.90
45319;DHT22;31057;48.498;32.260;2023-05-23T00:11:35;14.60;99.90
45319;DHT22;31057;48.498;32.260;2023-05-23T00:13:38;14.60;99.90
45319;DHT22;31057;48.498;32.260;2023-05-23T00:15:43;14.60;99.90
45319;DHT22;31057;48.498;32.260;2023-05-23T00:17:46;14.60;99.90
45319;DHT22;31057;48.498;32.260;2023-05-23T00:19:48;14.60;99.90
45319;DHT22;31057;48.498;32.260;2023-05-23T00:21:50;14.60;99.90
45319;DHT22;31057;48.498;32.260;2023-05-23T00:23:54;14.50;99.90
45319;DHT22;31057;48.498;32.260;2023-05-23T00:25:57;14.50;99.90
45319;DHT22;31057;48.498;32.260;2023-05-23T00:28:00;14.40;99.90
45319;DHT22;31057;48.498;32.260;2023-05-23T00:30:02;14.50;99.90
45319;DHT22;31057;48.498;32.260;2023-05-23T00:32:04;14.40;99.90
45319;DHT22;31057;48.498;32.260;2023-05-23T00:34:06;14.40;99.90
45319;DHT22;31057;48.498;32.260;2023-05-23T00:36:08;14.50;99.90
45319;DHT22;31057;48.498;32.260;2023-05-23T00:38:10;14.40;99.90
45319;DHT22;31057;48.498;32.260;2023-05-23T00:40:12;14.30;99.90
45319;DHT22;31057;48.498;32.260;2023-05-23T00:42:14;14.30;99.90
45319;DHT22;31057;48.498;32.260;2023-05-23T00:44:16;14.30;99.90
45319;DHT22;31057;48.498;32.260;2023-05-23T00:46:21;14.30;99.90
45319;DHT22;31057;48.498;32.260;2023-05-23T00:48:25;14.20;99.90
45319;DHT22;31057;48.498;32.260;2023-05-23T00:50:28;14.20;99.90
45319;DHT22;31057;48.498;32.260;2023-05-23T00:52:30;14.20;99.90
45319;DHT22;31057;48.498;32.260;2023-05-23T00:54:32;14.20;99.90
45319;DHT22;31057;48.498;32.260;2023-05-23T00:56:35;14.20;99.90
45319;DHT22;31057;48.498;32.260;2023-05-23T00:58:39;14.30;99.90
45319;DHT22;31057;48.498;32.260;2023-05-23T01:00:42;14.30;99.90
45319;DHT22;31057;48.498;32.260;2023-05-23T01:02:46;14.20;99.90
45319;DHT22;31057;48.498;32.260;2023-05-23T01:04:53;14.20;99.90
45319;DHT22;31057;48.498;32.260;2023-05-23T01:06:56;14.10;99.90
45319;DHT22;31057;48.498;32.260;2023-05-23T01:08:58;14.10;99.90
45319;DHT22;31057;48.498;32.260;2023-05-23T01:11:10;14.10;99.90
45319;DHT22;31057;48.498;32.260;2023-05-23T01:13:28;14.10;99.90
45319;DHT22;31057;48.498;32.260;2023-05-23T01:20:10;14.10;99.90
45319;DHT22;31057;48.498;32.260;2023-05-23T01:25:10;14.10;99.90
45319;DHT22;31057;48.498;32.260;2023-05-23T01:29:44;14.10;99.90
45319;DHT22;31057;48.498;32.260;2023-05-23T01:31:52;14.10;99.90
45319;DHT22;31057;48.498;32.260;2023-05-23T01:33:55;14.00;99.90
45319;DHT22;31057;48.498;32.260;2023-05-23T01:36:00;14.00;99.90
45319;DHT22;31057;48.498;32.260;2023-05-23T01:38:03;14.00;99.90
45319;DHT22;31057;48.498;32.260;2023-05-23T01:40:05;14.00;99.90
45319;DHT22;31057;48.498;32.260;2023-05-23T01:42:07;14.00;99.90
45319;DHT22;31057;48.498;32.260;2023-05-23T01:44:09;14.00;99.90
45319;DHT22;31057;48.498;32.260;2023-05-23T01:46:11;13.90;99.90
45319;DHT22;31057;48.498;32.260;2023-05-23T01:48:14;13.90;99.90
45319;DHT22;31057;48.498;32.260;2023-05-23T01:50:17;13.90;99.90
45319;DHT22;31057;48.498;32.260;2023-05-23T01:52:20;13.80;99.90
45319;DHT22;31057;48.498;32.260;2023-05-23T01:54:22;13.80;99.90
45319;DHT22;31057;48.498;32.260;2023-05-23T01:56:26;13.80;99.90
45319;DHT22;31057;48.498;32.260;2023-05-23T01:58:29;13.80;99.90
45319;DHT22;31057;48.498;32.260;2023-05-23T02:00:31;13.80;99.90
45319;DHT22;31057;48.498;32.260;2023-05-23T02:02:33;13.80;99.90
45319;DHT22;31057;48.498;32.260;2023-05-23T02:04:35;13.80;99.90
45319;DHT22;31057;48.498;32.260;2023-05-23T02:06:37;13.80;99.90
45319;DHT22;31057;48.498;32.260;2023-05-23T02:08:39;13.80;99.90
45319;DHT22;31057;48.498;32.260;2023-05-23T02:10:41;13.80;99.90
45319;DHT22;31057;48.498;32.260;2023-05-23T02:12:43;13.80;99.90
45319;DHT22;31057;48.498;32.260;2023-05-23T02:14:45;13.70;99.90
45319;DHT22;31057;48.498;32.260;2023-05-23T02:16:47;13.70;99.90
45319;DHT22;31057;48.498;32.260;2023-05-23T02:18:49;13.80;99.90
45319;DHT22;31057;48.498;32.260;2023-05-23T02:20:54;13.80;99.90
45319;DHT22;31057;48.498;32.260;2023-05-23T02:22:56;13.80;99.90
45319;DHT22;31057;48.498;32.260;2023-05-23T02:24:58;13.80;99.90
45319;DHT22;31057;48.498;32.260;2023-05-23T02:27:00;13.80;99.90
45319;DHT22;31057;48.498;32.260;2023-05-23T02:29:02;13.80;99.90
45319;DHT22;31057;48.498;32.260;2023-05-23T02:31:04;13.90;99.90
45319;DHT22;31057;48.498;32.260;2023-05-23T02:33:07;13.90;99.90
45319;DHT22;31057;48.498;32.260;2023-05-23T02:35:09;13.90;99.90
45319;DHT22;31057;48.498;32.260;2023-05-23T02:37:13;13.90;99.90
45319;DHT22;31057;48.498;32.260;2023-05-23T02:39:15;13.90;99.90
45319;DHT22;31057;48.498;32.260;2023-05-23T02:41:17;13.90;99.90
45319;DHT22;31057;48.498;32.260;2023-05-23T02:43:19;14.10;99.90
45319;DHT22;31057;48.498;32.260;2023-05-23T02:45:21;14.10;99.90
45319;DHT22;31057;48.498;32.260;2023-05-23T02:47:23;14.00;99.90
45319;DHT22;31057;48.498;32.260;2023-05-23T02:49:26;14.10;99.90
45319;DHT22;31057;48.498;32.260;2023-05-23T02:51:27;14.10;99.90
45319;DHT22;31057;48.498;32.260;2023-05-23T02:53:29;14.10;99.90
45319;DHT22;31057;48.498;32.260;2023-05-23T02:55:32;14.20;99.90
45319;DHT22;31057;48.498;32.260;2023-05-23T02:57:34;14.20;99.90
45319;DHT22;31057;48.498;32.260;2023-05-23T02:59:36;14.30;99.90
45319;DHT22;31057;48.498;32.260;2023-05-23T03:01:38;14.20;99.90
45319;DHT22;31057;48.498;32.260;2023-05-23T03:03:40;14.30;99.90
45319;DHT22;31057;48.498;32.260;2023-05-23T03:05:42;14.30;99.90
45319;DHT22;31057;48.498;32.260;2023-05-23T03:07:44;14.30;99.90
45319;DHT22;31057;48.498;32.260;2023-05-23T03:09:46;14.30;99.90
45319;DHT22;31057;48.498;32.260;2023-05-23T03:11:48;14.30;99.90
45319;DHT22;31057;48.498;32.260;2023-05-23T03:13:50;14.20;99.90
45319;DHT22;31057;48.498;32.260;2023-05-23T03:15:52;14.30;99.90
45319;DHT22;31057;48.498;32.260;2023-05-23T03:17:54;14.30;99.90
45319;DHT22;31057;48.498;32.260;2023-05-23T03:19:56;14.30;99.90
45319;DHT22;31057;48.498;32.260;2023-05-23T03:21:58;14.30;99.90
45319;DHT22;31057;48.498;32.260;2023-05-23T03:24:00;14.40;99.90
45319;DHT22;31057;48.498;32.260;2023-05-23T03:26:02;14.40;99.90
45319;DHT22;31057;48.498;32.260;2023-05-23T03:28:04;14.50;99.90
45319;DHT22;31057;48.498;32.260;2023-05-23T03:30:08;14.60;99.90
45319;DHT22;31057;48.498;32.260;2023-05-23T03:32:11;14.50;99.90
45319;DHT22;31057;48.498;32.260;2023-05-23T03:34:13;14.60;99.90
45319;DHT22;31057;48.498;32.260;2023-05-23T03:36:15;14.70;99.90
45319;DHT22;31057;48.498;32.260;2023-05-23T03:38:17;14.60;99.90
45319;DHT22;31057;48.498;32.260;2023-05-23T03:40:19;14.70;99.90
45319;DHT22;31057;48.498;32.260;2023-05-23T03:42:21;14.70;99.90
45319;DHT22;31057;48.498;32.260;2023-05-23T03:44:23;14.90;99.90
45319;DHT22;31057;48.498;32.260;2023-05-23T03:46:25;15.00;99.90
45319;DHT22;31057;48.498;32.260;2023-05-23T03:48:27;15.00;99.90
45319;DHT22;31057;48.498;32.260;2023-05-23T03:50:31;15.20;99.90
45319;DHT22;31057;48.498;32.260;2023-05-23T03:52:33;15.20;99.90
45319;DHT22;31057;48.498;32.260;2023-05-23T03:54:35;15.20;99.90
45319;DHT22;31057;48.498;32.260;2023-05-23T03:56:37;15.10;99.90
45319;DHT22;31057;48.498;32.260;2023-05-23T03:58:39;15.30;99.90
45319;DHT22;31057;48.498;32.260;2023-05-23T04:00:41;15.40;99.90
45319;DHT22;31057;48.498;32.260;2023-05-23T04:02:46;15.50;99.90
45319;DHT22;31057;48.498;32.260;2023-05-23T04:04:48;15.70;99.90
45319;DHT22;31057;48.498;32.260;2023-05-23T04:06:50;15.80;99.90
45319;DHT22;31057;48.498;32.260;2023-05-23T04:08:52;15.90;99.90
45319;DHT22;31057;48.498;32.260;2023-05-23T04:10:54;16.00;99.90
45319;DHT22;31057;48.498;32.260;2023-05-23T04:12:56;16.20;99.90
45319;DHT22;31057;48.498;32.260;2023-05-23T04:14:59;16.20;99.90
45319;DHT22;31057;48.498;32.260;2023-05-23T04:17:01;16.30;99.90
45319;DHT22;31057;48.498;32.260;2023-05-23T04:19:03;16.30;99.90
45319;DHT22;31057;48.498;32.260;2023-05-23T04:21:06;16.30;99.90
45319;DHT22;31057;48.498;32.260;2023-05-23T04:23:08;16.30;99.90
45319;DHT22;31057;48.498;32.260;2023-05-23T04:25:10;16.40;99.90
45319;DHT22;31057;48.498;32.260;2023-05-23T04:27:13;16.40;99.90
45319;DHT22;31057;48.498;32.260;2023-05-23T04:29:15;16.30;99.90
45319;DHT22;31057;48.498;32.260;2023-05-23T04:31:17;16.40;99.90
45319;DHT22;31057;48.498;32.260;2023-05-23T04:33:19;16.40;99.90
45319;DHT22;31057;48.498;32.260;2023-05-23T04:35:22;16.20;99.90
45319;DHT22;31057;48.498;32.260;2023-05-23T04:37:24;16.20;99.90
45319;DHT22;31057;48.498;32.260;2023-05-23T04:39:29;16.50;99.90
45319;DHT22;31057;48.498;32.260;2023-05-23T04:41:31;16.70;99.90
45319;DHT22;31057;48.498;32.260;2023-05-23T04:43:33;17.00;99.90
45319;DHT22;31057;48.498;32.260;2023-05-23T04:45:35;17.10;99.90
45319;DHT22;31057;48.498;32.260;2023-05-23T04:47:42;17.40;99.90
45319;DHT22;31057;48.498;32.260;2023-05-23T04:49:45;17.40;99.90
45319;DHT22;31057;48.498;32.260;2023-05-23T04:51:48;17.40;99.90
45319;DHT22;31057;48.498;32.260;2023-05-23T04:53:50;17.40;99.90
45319;DHT22;31057;48.498;32.260;2023-05-23T04:55:53;17.50;99.90
45319;DHT22;31057;48.498;32.260;2023-05-23T04:57:55;17.50;99.90
45319;DHT22;31057;48.498;32.260;2023-05-23T04:59:57;17.60;99.90
45319;DHT22;31057;48.498;32.260;2023-05-23T05:01:59;17.60;99.90
45319;DHT22;31057;48.498;32.260;2023-05-23T05:04:01;17.80;99.90
45319;DHT22;31057;48.498;32.260;2023-05-23T05:06:03;17.70;99.90
45319;DHT22;31057;48.498;32.260;2023-05-23T05:08:06;17.80;99.90
45319;DHT22;31057;48.498;32.260;2023-05-23T05:10:09;17.70;99.90
45319;DHT22;31057;48.498;32.260;2023-05-23T05:12:17;18.20;99.90
45319;DHT22;31057;48.498;32.260;2023-05-23T05:14:19;18.60;99.90
45319;DHT22;31057;48.498;32.260;2023-05-23T05:16:21;18.70;99.90
45319;DHT22;31057;48.498;32.260;2023-05-23T05:18:24;18.80;99.90
45319;DHT22;31057;48.498;32.260;2023-05-23T05:20:27;18.90;99.90
45319;DHT22;31057;48.498;32.260;2023-05-23T05:22:29;19.30;99.90
45319;DHT22;31057;48.498;32.260;2023-05-23T05:24:31;19.30;99.90
45319;DHT22;31057;48.498;32.260;2023-05-23T05:26:33;19.30;99.90
45319;DHT22;31057;48.498;32.260;2023-05-23T05:28:35;19.40;99.90
45319;DHT22;31057;48.498;32.260;2023-05-23T05:30:37;19.40;99.90
45319;DHT22;31057;48.498;32.260;2023-05-23T05:32:39;19.50;99.90
45319;DHT22;31057;48.498;32.260;2023-05-23T05:34:42;19.60;99.90
45319;DHT22;31057;48.498;32.260;2023-05-23T05:36:47;19.70;99.90
45319;DHT22;31057;48.498;32.260;2023-05-23T05:38:49;19.50;99.90
45319;DHT22;31057;48.498;32.260;2023-05-23T05:40:51;19.70;99.90
45319;DHT22;31057;48.498;32.260;2023-05-23T05:42:53;19.80;99.90
45319;DHT22;31057;48.498;32.260;2023-05-23T05:44:55;19.90;99.90
45319;DHT22;31057;48.498;32.260;2023-05-23T05:46:57;19.60;99.90
45319;DHT22;31057;48.498;32.260;2023-05-23T05:48:59;20.00;99.90
45319;DHT22;31057;48.498;32.260;2023-05-23T05:51:01;20.10;99.90
45319;DHT22;31057;48.498;32.260;2023-05-23T05:53:04;20.20;99.90
45319;DHT22;31057;48.498;32.260;2023-05-23T05:55:06;20.00;99.90
45319;DHT22;31057;48.498;32.260;2023-05-23T05:57:09;20.10;99.90
45319;DHT22;31057;48.498;32.260;2023-05-23T05:59:10;20.00;99.90
45319;DHT22;31057;48.498;32.260;2023-05-23T06:01:13;20.20;99.90
45319;DHT22;31057;48.498;32.260;2023-05-23T06:03:15;20.20;99.90
45319;DHT22;31057;48.498;32.260;2023-05-23T06:05:17;19.90;99.90
45319;DHT22;31057;48.498;32.260;2023-05-23T06:07:19;20.00;99.90
45319;DHT22;31057;48.498;32.260;2023-05-23T06:09:22;19.80;99.90
45319;DHT22;31057;48.498;32.260;2023-05-23T06:11:23;20.00;99.90
45319;DHT22;31057;48.498;32.260;2023-05-23T06:13:25;20.00;99.90
45319;DHT22;31057;48.498;32.260;2023-05-23T06:15:27;19.90;99.90
45319;DHT22;31057;48.498;32.260;2023-05-23T06:17:29;19.90;99.90
45319;DHT22;31057;48.498;32.260;2023-05-23T06:19:31;19.80;99.90
45319;DHT22;31057;48.498;32.260;2023-05-23T06:21:33;19.90;99.90
45319;DHT22;31057;48.498;32.260;2023-05-23T06:23:35;20.00;99.90
45319;DHT22;31057;48.498;32.260;2023-05-23T06:25:37;19.80;99.90
45319;DHT22;31057;48.498;32.260;2023-05-23T06:27:39;19.80;99.90
45319;DHT22;31057;48.498;32.260;2023-05-23T06:29:41;19.90;99.90
45319;DHT22;31057;48.498;32.260;2023-05-23T06:31:43;20.30;99.90
45319;DHT22;31057;48.498;32.260;2023-05-23T06:33:45;20.50;99.90
45319;DHT22;31057;48.498;32.260;2023-05-23T06:35:47;20.10;99.90
45319;DHT22;31057;48.498;32.260;2023-05-23T06:37:49;19.80;99.90
45319;DHT22;31057;48.498;32.260;2023-05-23T06:39:51;20.10;99.90
45319;DHT22;31057;48.498;32.260;2023-05-23T06:41:53;20.70;99.90
45319;DHT22;31057;48.498;32.260;2023-05-23T06:43:55;20.30;99.90
45319;DHT22;31057;48.498;32.260;2023-05-23T06:45:57;20.60;99.90
45319;DHT22;31057;48.498;32.260;2023-05-23T06:47:59;20.60;99.90
45319;DHT22;31057;48.498;32.260;2023-05-23T06:50:02;20.80;99.90
45319;DHT22;31057;48.498;32.260;2023-05-23T06:52:04;21.10;99.90
45319;DHT22;31057;48.498;32.260;2023-05-23T06:54:06;20.80;99.90
45319;DHT22;31057;48.498;32.260;2023-05-23T06:56:08;20.40;99.90
45319;DHT22;31057;48.498;32.260;2023-05-23T06:58:10;20.40;99.90
45319;DHT22;31057;48.498;32.260;2023-05-23T07:00:12;20.60;99.90
45319;DHT22;31057;48.498;32.260;2023-05-23T07:02:14;20.60;99.90
45319;DHT22;31057;48.498;32.260;2023-05-23T07:04:16;20.80;99.90
45319;DHT22;31057;48.498;32.260;2023-05-23T07:06:18;21.00;99.90
45319;DHT22;31057;48.498;32.260;2023-05-23T07:08:20;21.00;99.90
45319;DHT22;31057;48.498;32.260;2023-05-23T07:10:22;21.50;99.90
45319;DHT22;31057;48.498;32.260;2023-05-23T07:12:24;21.60;99.90
45319;DHT22;31057;48.498;32.260;2023-05-23T07:14:26;21.50;99.90
45319;DHT22;31057;48.498;32.260;2023-05-23T07:16:28;21.40;99.90
45319;DHT22;31057;48.498;32.260;2023-05-23T07:18:30;21.20;99.90
45319;DHT22;31057;48.498;32.260;2023-05-23T07:20:32;21.70;99.90
45319;DHT22;31057;48.498;32.260;2023-05-23T07:22:35;21.60;99.90
45319;DHT22;31057;48.498;32.260;2023-05-23T07:24:36;22.00;99.90
45319;DHT22;31057;48.498;32.260;2023-05-23T07:26:39;22.10;99.90
45319;DHT22;31057;48.498;32.260;2023-05-23T07:28:41;22.00;99.90
45319;DHT22;31057;48.498;32.260;2023-05-23T07:30:43;21.50;99.90
45319;DHT22;31057;48.498;32.260;2023-05-23T07:32:45;21.30;99.90
45319;DHT22;31057;48.498;32.260;2023-05-23T07:34:47;21.00;99.90
45319;DHT22;31057;48.498;32.260;2023-05-23T07:36:49;21.00;99.90
45319;DHT22;31057;48.498;32.260;2023-05-23T07:38:51;21.10;99.90
45319;DHT22;31057;48.498;32.260;2023-05-23T07:40:53;21.30;99.90
45319;DHT22;31057;48.498;32.260;2023-05-23T07:43:11;21.70;99.90
45319;DHT22;31057;48.498;32.260;2023-05-23T07:45:15;21.70;99.90
45319;DHT22;31057;48.498;32.260;2023-05-23T07:47:17;21.30;99.90
45319;DHT22;31057;48.498;32.260;2023-05-23T07:49:19;21.00;99.90
45319;DHT22;31057;48.498;32.260;2023-05-23T07:51:21;21.40;99.90
45319;DHT22;31057;48.498;32.260;2023-05-23T07:53:23;21.50;99.90
45319;DHT22;31057;48.498;32.260;2023-05-23T07:55:25;21.30;99.90
45319;DHT22;31057;48.498;32.260;2023-05-23T07:57:27;21.50;99.90
45319;DHT22;31057;48.498;32.260;2023-05-23T07:59:29;21.80;99.90
45319;DHT22;31057;48.498;32.260;2023-05-23T08:01:31;22.30;99.90
45319;DHT22;31057;48.498;32.260;2023-05-23T08:03:33;22.20;99.90
45319;DHT22;31057;48.498;32.260;2023-05-23T08:05:35;22.40;99.90
45319;DHT22;31057;48.498;32.260;2023-05-23T08:07:37;22.20;99.90
45319;DHT22;31057;48.498;32.260;2023-05-23T08:09:39;21.90;99.90
45319;DHT22;31057;48.498;32.260;2023-05-23T08:11:41;21.60;99.90
45319;DHT22;31057;48.498;32.260;2023-05-23T08:13:43;21.90;99.90
45319;DHT22;31057;48.498;32.260;2023-05-23T08:15:45;21.90;99.90
45319;DHT22;31057;48.498;32.260;2023-05-23T08:17:46;22.70;99.90
45319;DHT22;31057;48.498;32.260;2023-05-23T08:19:49;23.30;99.90
45319;DHT22;31057;48.498;32.260;2023-05-23T08:21:51;23.00;99.90
45319;DHT22;31057;48.498;32.260;2023-05-23T08:23:53;22.90;99.90
45319;DHT22;31057;48.498;32.260;2023-05-23T08:25:55;22.80;99.90
45319;DHT22;31057;48.498;32.260;2023-05-23T08:27:58;22.60;99.90
45319;DHT22;31057;48.498;32.260;2023-05-23T08:30:00;22.50;99.90
45319;DHT22;31057;48.498;32.260;2023-05-23T08:32:03;22.40;99.90
45319;DHT22;31057;48.498;32.260;2023-05-23T08:34:06;22.20;99.90
45319;DHT22;31057;48.498;32.260;2023-05-23T08:36:08;22.20;99.90
45319;DHT22;31057;48.498;32.260;2023-05-23T08:38:10;22.40;99.90
45319;DHT22;31057;48.498;32.260;2023-05-23T08:40:17;22.80;99.90
45319;DHT22;31057;48.498;32.260;2023-05-23T08:42:20;23.20;99.90
45319;DHT22;31057;48.498;32.260;2023-05-23T08:44:22;22.90;99.90
45319;DHT22;31057;48.498;32.260;2023-05-23T08:46:24;22.60;99.90
45319;DHT22;31057;48.498;32.260;2023-05-23T08:48:27;23.10;99.90
45319;DHT22;31057;48.498;32.260;2023-05-23T08:50:30;23.30;99.90
45319;DHT22;31057;48.498;32.260;2023-05-23T08:52:33;23.40;99.90
45319;DHT22;31057;48.498;32.260;2023-05-23T08:54:36;23.30;99.90
45319;DHT22;31057;48.498;32.260;2023-05-23T08:56:38;22.90;99.90
45319;DHT22;31057;48.498;32.260;2023-05-23T08:58:42;22.40;99.90
45319;DHT22;31057;48.498;32.260;2023-05-23T09:00:45;22.10;99.90
45319;DHT22;31057;48.498;32.260;2023-05-23T09:02:47;22.30;99.90
45319;DHT22;31057;48.498;32.260;2023-05-23T09:04:50;22.80;99.90
45319;DHT22;31057;48.498;32.260;2023-05-23T09:06:52;23.00;99.90
45319;DHT22;31057;48.498;32.260;2023-05-23T09:08:55;23.50;99.90
45319;DHT22;31057;48.498;32.260;2023-05-23T09:10:57;23.60;99.90
45319;DHT22;31057;48.498;32.260;2023-05-23T09:12:59;24.10;99.90
45319;DHT22;31057;48.498;32.260;2023-05-23T09:15:04;24.10;99.90
45319;DHT22;31057;48.498;32.260;2023-05-23T09:17:06;23.30;99.90
45319;DHT22;31057;48.498;32.260;2023-05-23T09:19:09;22.90;99.90
45319;DHT22;31057;48.498;32.260;2023-05-23T09:21:13;22.80;99.90
45319;DHT22;31057;48.498;32.260;2023-05-23T09:23:15;23.30;99.90
45319;DHT22;31057;48.498;32.260;2023-05-23T09:25:17;23.20;99.90
45319;DHT22;31057;48.498;32.260;2023-05-23T09:27:21;22.80;99.90
45319;DHT22;31057;48.498;32.260;2023-05-23T09:29:23;22.80;99.90
45319;DHT22;31057;48.498;32.260;2023-05-23T09:31:25;23.00;99.90
45319;DHT22;31057;48.498;32.260;2023-05-23T09:33:58;23.10;99.90
45319;DHT22;31057;48.498;32.260;2023-05-23T09:36:04;22.60;99.90
45319;DHT22;31057;48.498;32.260;2023-05-23T09:38:07;22.60;99.90
45319;DHT22;31057;48.498;32.260;2023-05-23T09:40:10;22.80;99.90
45319;DHT22;31057;48.498;32.260;2023-05-23T09:42:20;22.80;99.90
45319;DHT22;31057;48.498;32.260;2023-05-23T09:44:23;22.90;99.90
45319;DHT22;31057;48.498;32.260;2023-05-23T09:46:27;23.30;99.90
45319;DHT22;31057;48.498;32.260;2023-05-23T09:48:29;23.20;99.90
45319;DHT22;31057;48.498;32.260;2023-05-23T09:50:31;22.80;99.90
45319;DHT22;31057;48.498;32.260;2023-05-23T09:52:38;23.10;99.90
45319;DHT22;31057;48.498;32.260;2023-05-23T09:54:40;22.80;99.90
45319;DHT22;31057;48.498;32.260;2023-05-23T09:56:42;22.20;99.90
45319;DHT22;31057;48.498;32.260;2023-05-23T09:58:49;22.10;99.90
45319;DHT22;31057;48.498;32.260;2023-05-23T10:00:52;22.10;99.90
45319;DHT22;31057;48.498;32.260;2023-05-23T10:03:10;22.50;99.90
45319;DHT22;31057;48.498;32.260;2023-05-23T10:05:33;22.50;99.90
45319;DHT22;31057;48.498;32.260;2023-05-23T10:07:35;22.60;99.90
45319;DHT22;31057;48.498;32.260;2023-05-23T10:09:38;22.90;99.90
45319;DHT22;31057;48.498;32.260;2023-05-23T10:14:22;23.60;99.90
45319;DHT22;31057;48.498;32.260;2023-05-23T10:18:44;23.80;99.90
45319;DHT22;31057;48.498;32.260;2023-05-23T10:20:51;23.90;99.90
45319;DHT22;31057;48.498;32.260;2023-05-23T10:22:55;23.90;99.90
45319;DHT22;31057;48.498;32.260;2023-05-23T10:24:57;23.90;99.90
45319;DHT22;31057;48.498;32.260;2023-05-23T10:26:59;23.50;99.90
45319;DHT22;31057;48.498;32.260;2023-05-23T10:29:02;23.30;99.90
45319;DHT22;31057;48.498;32.260;2023-05-23T10:31:04;23.30;99.90
45319;DHT22;31057;48.498;32.260;2023-05-23T10:33:07;23.50;99.90
45319;DHT22;31057;48.498;32.260;2023-05-23T10:37:44;23.20;99.90
45319;DHT22;31057;48.498;32.260;2023-05-23T10:47:34;23.10;99.90
45319;DHT22;31057;48.498;32.260;2023-05-23T10:51:43;23.90;99.90
45319;DHT22;31057;48.498;32.260;2023-05-23T10:53:53;24.00;99.90
45319;DHT22;31057;48.498;32.260;2023-05-23T10:55:55;24.10;99.90
45319;DHT22;31057;48.498;32.260;2023-05-23T10:58:18;23.90;99.90
45319;DHT22;31057;48.498;32.260;2023-05-23T11:00:24;23.70;99.90
45319;DHT22;31057;48.498;32.260;2023-05-23T11:02:26;23.70;99.90
45319;DHT22;31057;48.498;32.260;2023-05-23T11:04:28;24.00;99.90
45319;DHT22;31057;48.498;32.260;2023-05-23T11:06:37;24.10;99.90
45319;DHT22;31057;48.498;32.260;2023-05-23T11:08:40;24.20;99.90
45319;DHT22;31057;48.498;32.260;2023-05-23T11:10:57;24.30;99.90
45319;DHT22;31057;48.498;32.260;2023-05-23T11:13:06;24.20;99.90
45319;DHT22;31057;48.498;32.260;2023-05-23T11:17:31;23.70;99.90
45319;DHT22;31057;48.498;32.260;2023-05-23T11:19:35;24.10;99.90
45319;DHT22;31057;48.498;32.260;2023-05-23T11:21:38;24.20;99.90
45319;DHT22;31057;48.498;32.260;2023-05-23T11:23:40;24.90;99.90
45319;DHT22;31057;48.498;32.260;2023-05-23T11:25:44;25.60;99.90
45319;DHT22;31057;48.498;32.260;2023-05-23T11:27:48;25.70;99.90
45319;DHT22;31057;48.498;32.260;2023-05-23T11:29:58;24.50;99.90
45319;DHT22;31057;48.498;32.260;2023-05-23T11:32:11;23.90;99.90
45319;DHT22;31057;48.498;32.260;2023-05-23T11:34:18;23.40;99.90
45319;DHT22;31057;48.498;32.260;2023-05-23T11:36:21;23.70;99.90
45319;DHT22;31057;48.498;32.260;2023-05-23T11:38:23;24.10;99.90
45319;DHT22;31057;48.498;32.260;2023-05-23T11:40:39;23.90;99.90
45319;DHT22;31057;48.498;32.260;2023-05-23T11:42:42;23.70;99.90
45319;DHT22;31057;48.498;32.260;2023-05-23T11:44:48;23.50;99.90
45319;DHT22;31057;48.498;32.260;2023-05-23T11:47:00;23.80;99.90
45319;DHT22;31057;48.498;32.260;2023-05-23T11:49:02;23.60;99.90
45319;DHT22;31057;48.498;32.260;2023-05-23T11:51:11;23.90;99.90
45319;DHT22;31057;48.498;32.260;2023-05-23T11:53:13;24.30;99.90
45319;DHT22;31057;48.498;32.260;2023-05-23T11:55:20;24.20;99.90
45319;DHT22;31057;48.498;32.260;2023-05-23T11:57:22;23.90;99.90
45319;DHT22;31057;48.498;32.260;2023-05-23T11:59:24;24.40;99.90
45319;DHT22;31057;48.498;32.260;2023-05-23T12:01:28;24.90;99.90
45319;DHT22;31057;48.498;32.260;2023-05-23T12:03:47;24.20;99.90
45319;DHT22;31057;48.498;32.260;2023-05-23T12:05:50;24.20;99.90
45319;DHT22;31057;48.498;32.260;2023-05-23T12:07:52;24.20;99.90
45319;DHT22;31057;48.498;32.260;2023-05-23T12:09:54;24.20;99.90
45319;DHT22;31057;48.498;32.260;2023-05-23T12:11:57;24.10;99.90
45319;DHT22;31057;48.498;32.260;2023-05-23T12:13:59;24.20;99.90
45319;DHT22;31057;48.498;32.260;2023-05-23T12:16:03;24.50;99.90
45319;DHT22;31057;48.498;32.260;2023-05-23T12:18:06;24.30;99.90
45319;DHT22;31057;48.498;32.260;2023-05-23T12:20:10;23.90;99.90
45319;DHT22;31057;48.498;32.260;2023-05-23T12:22:12;24.30;99.90
45319;DHT22;31057;48.498;32.260;2023-05-23T12:24:15;24.30;99.90
45319;DHT22;31057;48.498;32.260;2023-05-23T12:26:20;24.50;99.90
45319;DHT22;31057;48.498;32.260;2023-05-23T12:28:40;24.70;99.90
45319;DHT22;31057;48.498;32.260;2023-05-23T12:30:48;25.20;99.90
45319;DHT22;31057;48.498;32.260;2023-05-23T12:32:50;25.10;99.90
45319;DHT22;31057;48.498;32.260;2023-05-23T12:34:52;24.90;99.90
45319;DHT22;31057;48.498;32.260;2023-05-23T12:36:55;24.40;99.90
45319;DHT22;31057;48.498;32.260;2023-05-23T12:39:24;24.40;99.90
45319;DHT22;31057;48.498;32.260;2023-05-23T12:41:27;24.40;99.90
45319;DHT22;31057;48.498;32.260;2023-05-23T12:43:29;24.80;99.90
45319;DHT22;31057;48.498;32.260;2023-05-23T12:45:33;25.20;99.90
45319;DHT22;31057;48.498;32.260;2023-05-23T12:47:35;25.00;99.90
45319;DHT22;31057;48.498;32.260;2023-05-23T12:49:37;24.70;99.90
45319;DHT22;31057;48.498;32.260;2023-05-23T12:51:39;24.40;99.90
45319;DHT22;31057;48.498;32.260;2023-05-23T12:53:42;24.10;99.90
45319;DHT22;31057;48.498;32.260;2023-05-23T12:55:43;24.00;99.90
45319;DHT22;31057;48.498;32.260;2023-05-23T12:57:45;24.20;99.90
45319;DHT22;31057;48.498;32.260;2023-05-23T12:59:47;24.40;99.90
45319;DHT22;31057;48.498;32.260;2023-05-23T13:01:49;24.30;99.90
45319;DHT22;31057;48.498;32.260;2023-05-23T13:03:51;24.60;99.90
45319;DHT22;31057;48.498;32.260;2023-05-23T13:05:53;24.20;99.90
45319;DHT22;31057;48.498;32.260;2023-05-23T13:07:56;24.50;99.90
45319;DHT22;31057;48.498;32.260;2023-05-23T13:10:00;24.50;99.90
45319;DHT22;31057;48.498;32.260;2023-05-23T13:12:03;24.60;99.90
45319;DHT22;31057;48.498;32.260;2023-05-23T13:14:05;24.70;99.90
45319;DHT22;31057;48.498;32.260;2023-05-23T13:16:07;24.60;99.90